Custer, SD

11:34 PM MDT on October 24, 2014 (GMT -0600)
Custer County | Change Station
CLOSE
Current Station
Airport
Location: Custer,
Elevation: 5600 ft
Nearby Weather Stations

Elev 5600 ft 43.73 °N, 103.62 °W | Updated 41 minutes ago

Clear
Clear
40 °F
Feels Like 37 °F
N
5
Wind Variable Wind from North

Today
High -- | Low -- °F
--% Chance of Precip.
Yesterday
High -- | Low -- °F
Precip. -- in
7:20 AM 5:56 PM
New Moon, 2% visible
Pressure 30.08 in
Visibility 10.0 miles
Clouds Clear
Windchill 37 °F
Dew Point 33 °F
Humidity 77%
Rainfall 0.00 in
Snow Depth Not available.
UV 0 out of 12
Pollen 2.50 out of 12
Air Quality Not available.
Flu Activity Sporadic
METAR KCUT 250453Z AUTO 01004KT 10SM CLR 04/01 A3019 RMK AO2 SLP186 T00440006

More Conditions Fewer Conditions

Pressure 30.08 in
Visibility 10.0 miles
Clouds Clear
Windchill 37 °F
Dew Point 33 °F
Humidity 77%
Rainfall 0.00 in
Snow Depth Not available.
UV 0 out of 12
Pollen 2.50 out of 12
Air Quality Not available.
Flu Activity Sporadic
METAR KCUT 250453Z AUTO 01004KT 10SM CLR 04/01 A3019 RMK AO2 SLP186 T00440006

More Conditions Fewer Conditions

10-Day Weather Forecast

Almanac

Astronomy

Oct. 24, 2014 Rise Set
Actual Time 7:20 AM MDT 5:56 PM MDT
Civil Twilight 6:50 AM MDT 6:25 PM MDT
Nautical Twilight 6:17 AM MDT 6:59 PM MDT
Astronomical Twilight 5:43 AM MDT 7:32 PM MDT
Moon 8:02 AM MDT (10/24) 6:36 PM MDT (10/24)
Length of Visible Light 11h 35m
Length of Day
10h 36m
Tomorrow will be 2m 48s shorter.
New Moon, 2% of the Moon is Illuminated
Oct 25
New Moon
Oct 30
First Quarter
Nov 6
Full
Nov 14
Last Quarter
Nov 22
New

Yesterday's Extremes

State Highs State Lows

Community

WunderPhotos

Upload Photos

1,764,785 photos uploaded!

Nearby

Snow Depth

Station Depth Elevation
Blind Park 1 in 6890 ft
North Rapid Creek 1 in 6130 ft

Earthquake Activity

City Distance Mag. Time & Date
No recent earthquake activity has been reported nearby.
Minimum magnitude displayed is 2.5.

Coastal Water Temperatures

Place Temperature
No Stations Reporting

Nearby Weather Stations